sensor_id;sensor_type;location;lat;lon;timestamp;P1;durP1;ratioP1;P2;durP2;ratioP2
19059;SDS011;9663;48.996;8.334;2022-11-20T00:01:21;5.20;;;2.35;;
19059;SDS011;9663;48.996;8.334;2022-11-20T00:03:53;5.93;;;2.83;;
19059;SDS011;9663;48.996;8.334;2022-11-20T00:06:21;5.43;;;2.67;;
19059;SDS011;9663;48.996;8.334;2022-11-20T00:08:48;5.72;;;2.83;;
19059;SDS011;9663;48.996;8.334;2022-11-20T00:11:16;5.75;;;3.05;;
19059;SDS011;9663;48.996;8.334;2022-11-20T00:13:47;6.13;;;2.25;;
19059;SDS011;9663;48.996;8.334;2022-11-20T00:16:17;5.15;;;2.58;;
19059;SDS011;9663;48.996;8.334;2022-11-20T00:18:46;7.13;;;2.70;;
19059;SDS011;9663;48.996;8.334;2022-11-20T00:21:13;5.78;;;2.53;;
19059;SDS011;9663;48.996;8.334;2022-11-20T00:23:41;5.88;;;2.45;;
19059;SDS011;9663;48.996;8.334;2022-11-20T00:26:09;6.15;;;2.50;;
19059;SDS011;9663;48.996;8.334;2022-11-20T00:28:37;4.82;;;2.25;;
19059;SDS011;9663;48.996;8.334;2022-11-20T00:31:05;5.32;;;2.70;;
19059;SDS011;9663;48.996;8.334;2022-11-20T00:33:34;5.60;;;2.60;;
19059;SDS011;9663;48.996;8.334;2022-11-20T00:36:05;4.93;;;2.30;;
19059;SDS011;9663;48.996;8.334;2022-11-20T00:38:37;4.65;;;2.22;;
19059;SDS011;9663;48.996;8.334;2022-11-20T00:41:04;4.95;;;2.35;;
19059;SDS011;9663;48.996;8.334;2022-11-20T00:43:33;5.65;;;2.35;;
19059;SDS011;9663;48.996;8.334;2022-11-20T00:45:59;5.40;;;2.70;;
19059;SDS011;9663;48.996;8.334;2022-11-20T00:48:28;5.38;;;2.50;;
19059;SDS011;9663;48.996;8.334;2022-11-20T00:50:55;5.43;;;2.60;;
19059;SDS011;9663;48.996;8.334;2022-11-20T00:53:21;5.47;;;2.60;;
19059;SDS011;9663;48.996;8.334;2022-11-20T00:55:56;5.97;;;2.78;;
19059;SDS011;9663;48.996;8.334;2022-11-20T00:58:32;6.03;;;2.80;;
19059;SDS011;9663;48.996;8.334;2022-11-20T01:01:01;5.75;;;2.78;;
19059;SDS011;9663;48.996;8.334;2022-11-20T01:03:33;4.78;;;2.38;;
19059;SDS011;9663;48.996;8.334;2022-11-20T01:06:01;5.45;;;2.60;;
19059;SDS011;9663;48.996;8.334;2022-11-20T01:08:33;7.30;;;2.70;;
19059;SDS011;9663;48.996;8.334;2022-11-20T01:11:01;5.78;;;2.70;;
19059;SDS011;9663;48.996;8.334;2022-11-20T01:13:30;4.78;;;2.35;;
19059;SDS011;9663;48.996;8.334;2022-11-20T01:18:51;4.93;;;2.40;;
19059;SDS011;9663;48.996;8.334;2022-11-20T01:21:21;5.80;;;2.83;;
19059;SDS011;9663;48.996;8.334;2022-11-20T01:23:51;4.75;;;2.65;;
19059;SDS011;9663;48.996;8.334;2022-11-20T01:26:21;5.38;;;2.45;;
19059;SDS011;9663;48.996;8.334;2022-11-20T01:28:54;5.07;;;2.50;;
19059;SDS011;9663;48.996;8.334;2022-11-20T01:31:22;4.97;;;2.30;;
19059;SDS011;9663;48.996;8.334;2022-11-20T01:33:57;5.45;;;2.53;;
19059;SDS011;9663;48.996;8.334;2022-11-20T01:36:31;5.50;;;2.60;;
19059;SDS011;9663;48.996;8.334;2022-11-20T01:39:00;4.97;;;2.47;;
19059;SDS011;9663;48.996;8.334;2022-11-20T01:41:30;5.20;;;2.50;;
19059;SDS011;9663;48.996;8.334;2022-11-20T01:44:17;4.43;;;2.00;;
19059;SDS011;9663;48.996;8.334;2022-11-20T01:46:56;5.10;;;2.47;;
19059;SDS011;9663;48.996;8.334;2022-11-20T01:49:40;4.70;;;2.13;;
19059;SDS011;9663;48.996;8.334;2022-11-20T01:52:17;4.95;;;2.28;;
19059;SDS011;9663;48.996;8.334;2022-11-20T01:55:09;4.43;;;2.10;;
19059;SDS011;9663;48.996;8.334;2022-11-20T01:57:44;4.45;;;1.80;;
19059;SDS011;9663;48.996;8.334;2022-11-20T02:00:14;4.60;;;2.10;;
19059;SDS011;9663;48.996;8.334;2022-11-20T02:02:44;4.18;;;1.83;;
19059;SDS011;9663;48.996;8.334;2022-11-20T02:07:59;4.72;;;1.83;;
19059;SDS011;9663;48.996;8.334;2022-11-20T02:10:27;4.40;;;2.00;;
19059;SDS011;9663;48.996;8.334;2022-11-20T02:12:54;4.07;;;1.95;;
19059;SDS011;9663;48.996;8.334;2022-11-20T02:15:39;4.95;;;2.20;;
19059;SDS011;9663;48.996;8.334;2022-11-20T02:18:06;4.90;;;2.20;;
19059;SDS011;9663;48.996;8.334;2022-11-20T02:20:33;4.32;;;2.00;;
19059;SDS011;9663;48.996;8.334;2022-11-20T02:25:32;4.18;;;2.03;;
19059;SDS011;9663;48.996;8.334;2022-11-20T02:28:01;4.90;;;1.98;;
19059;SDS011;9663;48.996;8.334;2022-11-20T02:30:28;4.78;;;1.88;;
19059;SDS011;9663;48.996;8.334;2022-11-20T02:32:54;4.20;;;1.90;;
19059;SDS011;9663;48.996;8.334;2022-11-20T02:37:48;3.92;;;2.08;;
19059;SDS011;9663;48.996;8.334;2022-11-20T02:40:19;5.03;;;1.80;;
19059;SDS011;9663;48.996;8.334;2022-11-20T02:42:45;5.15;;;1.88;;
19059;SDS011;9663;48.996;8.334;2022-11-20T02:45:11;4.10;;;1.90;;
19059;SDS011;9663;48.996;8.334;2022-11-20T02:47:37;5.55;;;1.85;;
19059;SDS011;9663;48.996;8.334;2022-11-20T02:50:03;4.50;;;1.52;;
19059;SDS011;9663;48.996;8.334;2022-11-20T02:52:30;3.80;;;1.70;;
19059;SDS011;9663;48.996;8.334;2022-11-20T02:54:56;4.40;;;2.03;;
19059;SDS011;9663;48.996;8.334;2022-11-20T02:57:22;3.85;;;1.77;;
19059;SDS011;9663;48.996;8.334;2022-11-20T02:59:47;4.30;;;2.08;;
19059;SDS011;9663;48.996;8.334;2022-11-20T03:02:13;5.15;;;2.10;;
19059;SDS011;9663;48.996;8.334;2022-11-20T03:04:39;4.55;;;2.05;;
19059;SDS011;9663;48.996;8.334;2022-11-20T03:07:04;4.05;;;1.75;;
19059;SDS011;9663;48.996;8.334;2022-11-20T03:09:30;3.83;;;1.80;;
19059;SDS011;9663;48.996;8.334;2022-11-20T03:11:56;5.82;;;2.25;;
19059;SDS011;9663;48.996;8.334;2022-11-20T03:14:21;4.85;;;2.03;;
19059;SDS011;9663;48.996;8.334;2022-11-20T03:16:47;3.63;;;1.67;;
19059;SDS011;9663;48.996;8.334;2022-11-20T03:19:13;5.00;;;1.98;;
19059;SDS011;9663;48.996;8.334;2022-11-20T03:21:39;4.95;;;1.85;;
19059;SDS011;9663;48.996;8.334;2022-11-20T03:24:05;4.05;;;1.70;;
19059;SDS011;9663;48.996;8.334;2022-11-20T03:26:32;4.30;;;1.63;;
19059;SDS011;9663;48.996;8.334;2022-11-20T03:28:59;4.10;;;1.88;;
19059;SDS011;9663;48.996;8.334;2022-11-20T03:31:29;3.97;;;1.65;;
19059;SDS011;9663;48.996;8.334;2022-11-20T03:34:00;5.38;;;1.70;;
19059;SDS011;9663;48.996;8.334;2022-11-20T03:36:28;3.78;;;1.50;;
19059;SDS011;9663;48.996;8.334;2022-11-20T03:38:55;4.28;;;1.88;;
19059;SDS011;9663;48.996;8.334;2022-11-20T03:41:26;4.05;;;1.67;;
19059;SDS011;9663;48.996;8.334;2022-11-20T03:43:56;3.28;;;1.50;;
19059;SDS011;9663;48.996;8.334;2022-11-20T03:46:25;4.53;;;1.83;;
19059;SDS011;9663;48.996;8.334;2022-11-20T03:48:52;4.00;;;1.60;;
19059;SDS011;9663;48.996;8.334;2022-11-20T03:51:20;3.95;;;1.65;;
19059;SDS011;9663;48.996;8.334;2022-11-20T03:53:56;4.00;;;1.90;;
19059;SDS011;9663;48.996;8.334;2022-11-20T03:56:26;3.97;;;1.75;;
19059;SDS011;9663;48.996;8.334;2022-11-20T03:58:55;5.78;;;1.70;;
19059;SDS011;9663;48.996;8.334;2022-11-20T04:01:23;3.72;;;1.60;;
19059;SDS011;9663;48.996;8.334;2022-11-20T04:03:53;3.70;;;1.70;;
19059;SDS011;9663;48.996;8.334;2022-11-20T04:06:22;4.63;;;1.98;;
19059;SDS011;9663;48.996;8.334;2022-11-20T04:08:51;4.80;;;1.80;;
19059;SDS011;9663;48.996;8.334;2022-11-20T04:11:21;4.18;;;2.00;;
19059;SDS011;9663;48.996;8.334;2022-11-20T04:13:48;5.03;;;1.88;;
19059;SDS011;9663;48.996;8.334;2022-11-20T04:16:17;4.40;;;1.90;;
19059;SDS011;9663;48.996;8.334;2022-11-20T04:18:44;4.60;;;1.90;;
19059;SDS011;9663;48.996;8.334;2022-11-20T04:21:10;4.25;;;1.50;;
19059;SDS011;9663;48.996;8.334;2022-11-20T04:23:36;4.85;;;1.88;;
19059;SDS011;9663;48.996;8.334;2022-11-20T04:26:04;4.32;;;1.65;;
19059;SDS011;9663;48.996;8.334;2022-11-20T04:28:33;4.70;;;1.70;;
19059;SDS011;9663;48.996;8.334;2022-11-20T04:31:03;3.67;;;1.70;;
19059;SDS011;9663;48.996;8.334;2022-11-20T04:33:31;3.50;;;1.50;;
19059;SDS011;9663;48.996;8.334;2022-11-20T04:36:02;4.25;;;1.80;;
19059;SDS011;9663;48.996;8.334;2022-11-20T04:38:31;3.40;;;1.38;;
19059;SDS011;9663;48.996;8.334;2022-11-20T04:41:00;3.90;;;1.50;;
19059;SDS011;9663;48.996;8.334;2022-11-20T04:43:29;4.38;;;1.52;;
19059;SDS011;9663;48.996;8.334;2022-11-20T04:45:56;3.03;;;1.38;;
19059;SDS011;9663;48.996;8.334;2022-11-20T04:48:24;3.70;;;1.45;;
19059;SDS011;9663;48.996;8.334;2022-11-20T04:50:53;3.53;;;1.50;;
19059;SDS011;9663;48.996;8.334;2022-11-20T04:53:19;3.28;;;1.30;;
19059;SDS011;9663;48.996;8.334;2022-11-20T04:55:46;3.22;;;1.42;;
19059;SDS011;9663;48.996;8.334;2022-11-20T04:58:12;3.25;;;1.48;;
19059;SDS011;9663;48.996;8.334;2022-11-20T05:00:38;3.33;;;1.40;;
19059;SDS011;9663;48.996;8.334;2022-11-20T05:03:04;3.28;;;1.45;;
19059;SDS011;9663;48.996;8.334;2022-11-20T05:05:30;3.53;;;1.40;;
19059;SDS011;9663;48.996;8.334;2022-11-20T05:07:56;3.70;;;1.50;;
19059;SDS011;9663;48.996;8.334;2022-11-20T05:10:23;3.67;;;1.50;;
19059;SDS011;9663;48.996;8.334;2022-11-20T05:12:50;3.47;;;1.77;;
19059;SDS011;9663;48.996;8.334;2022-11-20T05:15:15;4.05;;;1.75;;
19059;SDS011;9663;48.996;8.334;2022-11-20T05:17:46;3.35;;;1.38;;
19059;SDS011;9663;48.996;8.334;2022-11-20T05:20:14;3.10;;;1.33;;
19059;SDS011;9663;48.996;8.334;2022-11-20T05:22:39;4.25;;;1.38;;
19059;SDS011;9663;48.996;8.334;2022-11-20T05:25:05;3.90;;;1.65;;
19059;SDS011;9663;48.996;8.334;2022-11-20T05:27:31;4.65;;;1.80;;
19059;SDS011;9663;48.996;8.334;2022-11-20T05:29:57;3.22;;;1.33;;
19059;SDS011;9663;48.996;8.334;2022-11-20T05:32:22;3.67;;;1.58;;
19059;SDS011;9663;48.996;8.334;2022-11-20T05:34:50;3.25;;;1.50;;
19059;SDS011;9663;48.996;8.334;2022-11-20T05:37:17;3.72;;;1.42;;
19059;SDS011;9663;48.996;8.334;2022-11-20T05:39:42;3.45;;;1.60;;
19059;SDS011;9663;48.996;8.334;2022-11-20T05:42:08;3.47;;;1.35;;
19059;SDS011;9663;48.996;8.334;2022-11-20T05:44:52;2.85;;;1.33;;
19059;SDS011;9663;48.996;8.334;2022-11-20T05:47:18;4.68;;;1.70;;
19059;SDS011;9663;48.996;8.334;2022-11-20T05:49:44;3.70;;;1.60;;
19059;SDS011;9663;48.996;8.334;2022-11-20T05:52:09;3.50;;;1.60;;
19059;SDS011;9663;48.996;8.334;2022-11-20T05:54:35;3.85;;;1.50;;
19059;SDS011;9663;48.996;8.334;2022-11-20T05:57:01;3.25;;;1.27;;
19059;SDS011;9663;48.996;8.334;2022-11-20T05:59:26;3.45;;;1.42;;
19059;SDS011;9663;48.996;8.334;2022-11-20T06:01:52;4.22;;;1.60;;
19059;SDS011;9663;48.996;8.334;2022-11-20T06:04:17;3.20;;;1.35;;
19059;SDS011;9663;48.996;8.334;2022-11-20T06:06:43;3.20;;;1.30;;
19059;SDS011;9663;48.996;8.334;2022-11-20T06:09:09;3.35;;;1.30;;
19059;SDS011;9663;48.996;8.334;2022-11-20T06:11:34;3.72;;;1.60;;
19059;SDS011;9663;48.996;8.334;2022-11-20T06:14:00;3.25;;;1.35;;
19059;SDS011;9663;48.996;8.334;2022-11-20T06:16:26;3.78;;;1.58;;
19059;SDS011;9663;48.996;8.334;2022-11-20T06:18:51;2.97;;;1.20;;
19059;SDS011;9663;48.996;8.334;2022-11-20T06:21:18;3.92;;;1.20;;
19059;SDS011;9663;48.996;8.334;2022-11-20T06:23:46;3.97;;;1.52;;
19059;SDS011;9663;48.996;8.334;2022-11-20T06:26:16;3.03;;;1.17;;
19059;SDS011;9663;48.996;8.334;2022-11-20T06:28:47;3.50;;;1.30;;
19059;SDS011;9663;48.996;8.334;2022-11-20T06:31:14;2.90;;;1.20;;
19059;SDS011;9663;48.996;8.334;2022-11-20T06:33:43;3.13;;;1.27;;
19059;SDS011;9663;48.996;8.334;2022-11-20T06:36:10;2.97;;;1.20;;
19059;SDS011;9663;48.996;8.334;2022-11-20T06:38:38;3.45;;;1.38;;
19059;SDS011;9663;48.996;8.334;2022-11-20T06:41:06;3.25;;;1.30;;
19059;SDS011;9663;48.996;8.334;2022-11-20T06:43:35;3.45;;;1.35;;
19059;SDS011;9663;48.996;8.334;2022-11-20T06:46:00;3.05;;;1.20;;
19059;SDS011;9663;48.996;8.334;2022-11-20T06:48:27;3.03;;;1.40;;
19059;SDS011;9663;48.996;8.334;2022-11-20T06:50:54;3.03;;;1.20;;
19059;SDS011;9663;48.996;8.334;2022-11-20T06:53:23;3.88;;;1.30;;
19059;SDS011;9663;48.996;8.334;2022-11-20T06:55:49;3.35;;;1.30;;
19059;SDS011;9663;48.996;8.334;2022-11-20T06:58:16;2.97;;;1.10;;
19059;SDS011;9663;48.996;8.334;2022-11-20T07:00:43;2.58;;;1.00;;
19059;SDS011;9663;48.996;8.334;2022-11-20T07:03:10;3.45;;;1.08;;
19059;SDS011;9663;48.996;8.334;2022-11-20T07:05:37;3.92;;;1.25;;
19059;SDS011;9663;48.996;8.334;2022-11-20T07:08:03;3.53;;;1.40;;
19059;SDS011;9663;48.996;8.334;2022-11-20T07:10:30;2.97;;;1.27;;
19059;SDS011;9663;48.996;8.334;2022-11-20T07:12:56;2.67;;;1.33;;
19059;SDS011;9663;48.996;8.334;2022-11-20T07:15:22;2.67;;;1.10;;
19059;SDS011;9663;48.996;8.334;2022-11-20T07:17:50;2.45;;;1.02;;
19059;SDS011;9663;48.996;8.334;2022-11-20T07:20:16;2.90;;;1.10;;
19059;SDS011;9663;48.996;8.334;2022-11-20T07:22:42;3.63;;;1.45;;
19059;SDS011;9663;48.996;8.334;2022-11-20T07:25:09;2.80;;;1.13;;
19059;SDS011;9663;48.996;8.334;2022-11-20T07:27:36;3.47;;;1.30;;
19059;SDS011;9663;48.996;8.334;2022-11-20T07:30:02;3.33;;;1.15;;
19059;SDS011;9663;48.996;8.334;2022-11-20T07:32:29;3.30;;;1.20;;
19059;SDS011;9663;48.996;8.334;2022-11-20T07:34:55;2.75;;;1.13;;
19059;SDS011;9663;48.996;8.334;2022-11-20T07:37:20;4.32;;;1.20;;
19059;SDS011;9663;48.996;8.334;2022-11-20T07:39:46;2.80;;;1.20;;
19059;SDS011;9663;48.996;8.334;2022-11-20T07:42:12;2.47;;;1.00;;
19059;SDS011;9663;48.996;8.334;2022-11-20T07:44:38;3.80;;;1.30;;
19059;SDS011;9663;48.996;8.334;2022-11-20T07:47:03;5.03;;;1.65;;
19059;SDS011;9663;48.996;8.334;2022-11-20T07:49:29;3.10;;;1.20;;
19059;SDS011;9663;48.996;8.334;2022-11-20T07:51:55;3.30;;;1.25;;
19059;SDS011;9663;48.996;8.334;2022-11-20T07:54:21;3.33;;;1.25;;
19059;SDS011;9663;48.996;8.334;2022-11-20T07:56:48;3.03;;;1.20;;
19059;SDS011;9663;48.996;8.334;2022-11-20T07:59:14;3.40;;;1.30;;
19059;SDS011;9663;48.996;8.334;2022-11-20T08:01:40;3.15;;;1.38;;
19059;SDS011;9663;48.996;8.334;2022-11-20T08:04:07;4.43;;;1.58;;
19059;SDS011;9663;48.996;8.334;2022-11-20T08:06:34;3.70;;;1.50;;
19059;SDS011;9663;48.996;8.334;2022-11-20T08:09:01;3.30;;;1.42;;
19059;SDS011;9663;48.996;8.334;2022-11-20T08:11:27;2.80;;;1.13;;
19059;SDS011;9663;48.996;8.334;2022-11-20T08:14:11;3.28;;;1.33;;
19059;SDS011;9663;48.996;8.334;2022-11-20T08:16:41;3.13;;;1.25;;
19059;SDS011;9663;48.996;8.334;2022-11-20T08:19:13;2.95;;;1.20;;
19059;SDS011;9663;48.996;8.334;2022-11-20T08:21:40;4.68;;;1.20;;
19059;SDS011;9663;48.996;8.334;2022-11-20T08:24:07;4.28;;;1.23;;
19059;SDS011;9663;48.996;8.334;2022-11-20T08:26:35;3.83;;;1.35;;
19059;SDS011;9663;48.996;8.334;2022-11-20T08:29:03;3.40;;;1.30;;
19059;SDS011;9663;48.996;8.334;2022-11-20T08:31:30;2.97;;;1.13;;
19059;SDS011;9663;48.996;8.334;2022-11-20T08:33:57;2.53;;;0.95;;
19059;SDS011;9663;48.996;8.334;2022-11-20T08:36:23;3.25;;;1.27;;
19059;SDS011;9663;48.996;8.334;2022-11-20T08:38:53;4.22;;;1.33;;
19059;SDS011;9663;48.996;8.334;2022-11-20T08:41:20;2.90;;;1.15;;
19059;SDS011;9663;48.996;8.334;2022-11-20T08:43:56;4.97;;;1.40;;
19059;SDS011;9663;48.996;8.334;2022-11-20T08:46:25;3.28;;;1.20;;
19059;SDS011;9663;48.996;8.334;2022-11-20T08:48:53;3.30;;;1.40;;
19059;SDS011;9663;48.996;8.334;2022-11-20T08:51:19;2.70;;;1.02;;
19059;SDS011;9663;48.996;8.334;2022-11-20T08:53:45;3.63;;;1.58;;
19059;SDS011;9663;48.996;8.334;2022-11-20T08:56:13;3.60;;;1.23;;
19059;SDS011;9663;48.996;8.334;2022-11-20T08:58:39;3.22;;;1.30;;
19059;SDS011;9663;48.996;8.334;2022-11-20T09:01:05;2.88;;;1.20;;
19059;SDS011;9663;48.996;8.334;2022-11-20T09:03:31;4.28;;;1.50;;
19059;SDS011;9663;48.996;8.334;2022-11-20T09:06:01;2.72;;;1.05;;
19059;SDS011;9663;48.996;8.334;2022-11-20T09:08:31;2.78;;;1.13;;
19059;SDS011;9663;48.996;8.334;2022-11-20T09:10:58;2.88;;;1.23;;
19059;SDS011;9663;48.996;8.334;2022-11-20T09:13:25;2.70;;;1.05;;
19059;SDS011;9663;48.996;8.334;2022-11-20T09:15:55;3.58;;;1.50;;
19059;SDS011;9663;48.996;8.334;2022-11-20T09:18:24;4.20;;;1.38;;
19059;SDS011;9663;48.996;8.334;2022-11-20T09:20:51;3.00;;;1.10;;
19059;SDS011;9663;48.996;8.334;2022-11-20T09:23:20;3.05;;;1.10;;
19059;SDS011;9663;48.996;8.334;2022-11-20T09:25:46;4.10;;;1.48;;
19059;SDS011;9663;48.996;8.334;2022-11-20T09:28:11;3.03;;;1.00;;
19059;SDS011;9663;48.996;8.334;2022-11-20T09:30:37;3.60;;;1.20;;
19059;SDS011;9663;48.996;8.334;2022-11-20T09:33:04;3.30;;;1.42;;
19059;SDS011;9663;48.996;8.334;2022-11-20T09:35:31;4.05;;;1.20;;
19059;SDS011;9663;48.996;8.334;2022-11-20T09:37:57;2.85;;;1.10;;
19059;SDS011;9663;48.996;8.334;2022-11-20T09:40:26;3.75;;;1.25;;
19059;SDS011;9663;48.996;8.334;2022-11-20T09:42:59;3.28;;;1.20;;
19059;SDS011;9663;48.996;8.334;2022-11-20T09:54:18;3.08;;;1.10;;
19059;SDS011;9663;48.996;8.334;2022-11-20T09:56:47;2.78;;;1.27;;
19059;SDS011;9663;48.996;8.334;2022-11-20T10:04:53;2.60;;;1.10;;
19059;SDS011;9663;48.996;8.334;2022-11-20T10:16:16;3.60;;;1.40;;
19059;SDS011;9663;48.996;8.334;2022-11-20T10:25:22;4.38;;;1.30;;
19059;SDS011;9663;48.996;8.334;2022-11-20T10:30:44;3.58;;;1.23;;
19059;SDS011;9663;48.996;8.334;2022-11-20T10:33:24;3.08;;;1.20;;
19059;SDS011;9663;48.996;8.334;2022-11-20T10:38:34;3.13;;;1.40;;
19059;SDS011;9663;48.996;8.334;2022-11-20T10:41:06;3.40;;;1.25;;
19059;SDS011;9663;48.996;8.334;2022-11-20T10:43:57;2.65;;;1.10;;
19059;SDS011;9663;48.996;8.334;2022-11-20T10:46:38;2.65;;;1.10;;
19059;SDS011;9663;48.996;8.334;2022-11-20T10:49:14;3.60;;;1.30;;
19059;SDS011;9663;48.996;8.334;2022-11-20T10:51:49;3.28;;;1.30;;
19059;SDS011;9663;48.996;8.334;2022-11-20T10:54:44;4.10;;;1.33;;
19059;SDS011;9663;48.996;8.334;2022-11-20T10:58:24;3.33;;;1.17;;
19059;SDS011;9663;48.996;8.334;2022-11-20T11:01:20;3.58;;;1.48;;
19059;SDS011;9663;48.996;8.334;2022-11-20T11:03:48;3.38;;;1.30;;
19059;SDS011;9663;48.996;8.334;2022-11-20T11:08:58;3.40;;;1.23;;
19059;SDS011;9663;48.996;8.334;2022-11-20T11:11:30;4.53;;;1.10;;
19059;SDS011;9663;48.996;8.334;2022-11-20T11:14:05;3.40;;;1.00;;
19059;SDS011;9663;48.996;8.334;2022-11-20T11:16:40;2.75;;;1.10;;
19059;SDS011;9663;48.996;8.334;2022-11-20T11:19:22;2.97;;;1.20;;
19059;SDS011;9663;48.996;8.334;2022-11-20T11:21:49;3.20;;;1.10;;
19059;SDS011;9663;48.996;8.334;2022-11-20T11:24:23;3.28;;;1.10;;
19059;SDS011;9663;48.996;8.334;2022-11-20T11:26:55;2.92;;;1.17;;
19059;SDS011;9663;48.996;8.334;2022-11-20T11:29:22;3.90;;;1.20;;
19059;SDS011;9663;48.996;8.334;2022-11-20T11:31:48;3.15;;;1.20;;
19059;SDS011;9663;48.996;8.334;2022-11-20T11:34:15;4.18;;;1.20;;
19059;SDS011;9663;48.996;8.334;2022-11-20T11:36:48;3.63;;;1.15;;
19059;SDS011;9663;48.996;8.334;2022-11-20T11:39:22;5.72;;;1.13;;
19059;SDS011;9663;48.996;8.334;2022-11-20T11:41:50;2.97;;;0.90;;
19059;SDS011;9663;48.996;8.334;2022-11-20T11:44:20;3.67;;;1.00;;
19059;SDS011;9663;48.996;8.334;2022-11-20T11:47:31;2.47;;;0.90;;
19059;SDS011;9663;48.996;8.334;2022-11-20T11:52:41;3.42;;;1.00;;
19059;SDS011;9663;48.996;8.334;2022-11-20T11:55:43;2.78;;;1.00;;
19059;SDS011;9663;48.996;8.334;2022-11-20T12:04:18;2.53;;;0.85;;
19059;SDS011;9663;48.996;8.334;2022-11-20T12:10:05;4.03;;;1.10;;
19059;SDS011;9663;48.996;8.334;2022-11-20T12:12:48;3.70;;;0.88;;
19059;SDS011;9663;48.996;8.334;2022-11-20T12:15:27;3.17;;;1.00;;
19059;SDS011;9663;48.996;8.334;2022-11-20T12:17:58;3.42;;;1.00;;
19059;SDS011;9663;48.996;8.334;2022-11-20T12:20:25;3.08;;;1.02;;
19059;SDS011;9663;48.996;8.334;2022-11-20T12:23:02;3.50;;;1.00;;
19059;SDS011;9663;48.996;8.334;2022-11-20T12:25:40;5.65;;;1.27;;
19059;SDS011;9663;48.996;8.334;2022-11-20T12:31:10;3.17;;;1.10;;
19059;SDS011;9663;48.996;8.334;2022-11-20T12:34:05;2.90;;;0.90;;
19059;SDS011;9663;48.996;8.334;2022-11-20T12:36:45;2.85;;;0.90;;
19059;SDS011;9663;48.996;8.334;2022-11-20T12:39:35;4.80;;;1.10;;
19059;SDS011;9663;48.996;8.334;2022-11-20T12:45:48;1.92;;;0.80;;
19059;SDS011;9663;48.996;8.334;2022-11-20T12:49:00;2.30;;;0.70;;
19059;SDS011;9663;48.996;8.334;2022-11-20T12:52:17;2.80;;;0.70;;
19059;SDS011;9663;48.996;8.334;2022-11-20T12:58:10;1.58;;;0.68;;
19059;SDS011;9663;48.996;8.334;2022-11-20T13:03:32;2.22;;;0.70;;
19059;SDS011;9663;48.996;8.334;2022-11-20T13:06:11;2.13;;;0.70;;
19059;SDS011;9663;48.996;8.334;2022-11-20T13:08:53;1.55;;;0.55;;
19059;SDS011;9663;48.996;8.334;2022-11-20T13:11:32;2.50;;;0.93;;
19059;SDS011;9663;48.996;8.334;2022-11-20T13:14:12;3.83;;;0.80;;
19059;SDS011;9663;48.996;8.334;2022-11-20T13:17:19;3.13;;;0.70;;
19059;SDS011;9663;48.996;8.334;2022-11-20T13:19:52;2.20;;;0.70;;
19059;SDS011;9663;48.996;8.334;2022-11-20T13:22:28;4.57;;;1.02;;
19059;SDS011;9663;48.996;8.334;2022-11-20T13:25:09;1.65;;;0.65;;
19059;SDS011;9663;48.996;8.334;2022-11-20T13:27:35;2.70;;;0.90;;
19059;SDS011;9663;48.996;8.334;2022-11-20T13:30:15;1.55;;;0.60;;
19059;SDS011;9663;48.996;8.334;2022-11-20T13:35:54;3.95;;;0.80;;
19059;SDS011;9663;48.996;8.334;2022-11-20T13:38:22;2.25;;;0.80;;
19059;SDS011;9663;48.996;8.334;2022-11-20T13:46:06;2.90;;;0.70;;
19059;SDS011;9663;48.996;8.334;2022-11-20T13:48:46;3.65;;;0.70;;
19059;SDS011;9663;48.996;8.334;2022-11-20T13:54:36;2.85;;;1.00;;
19059;SDS011;9663;48.996;8.334;2022-11-20T13:57:36;2.20;;;0.70;;
19059;SDS011;9663;48.996;8.334;2022-11-20T14:00:31;2.30;;;0.80;;
19059;SDS011;9663;48.996;8.334;2022-11-20T14:05:35;2.53;;;0.68;;
19059;SDS011;9663;48.996;8.334;2022-11-20T14:08:06;2.35;;;0.70;;
19059;SDS011;9663;48.996;8.334;2022-11-20T14:10:42;2.33;;;0.80;;
19059;SDS011;9663;48.996;8.334;2022-11-20T14:13:17;3.38;;;0.80;;
19059;SDS011;9663;48.996;8.334;2022-11-20T14:15:45;2.53;;;0.80;;
19059;SDS011;9663;48.996;8.334;2022-11-20T14:18:12;2.55;;;0.90;;
19059;SDS011;9663;48.996;8.334;2022-11-20T14:20:44;1.80;;;0.60;;
19059;SDS011;9663;48.996;8.334;2022-11-20T14:23:10;1.67;;;0.65;;
19059;SDS011;9663;48.996;8.334;2022-11-20T14:25:36;2.60;;;0.90;;
19059;SDS011;9663;48.996;8.334;2022-11-20T14:28:10;2.20;;;0.90;;
19059;SDS011;9663;48.996;8.334;2022-11-20T14:30:50;1.35;;;0.60;;
19059;SDS011;9663;48.996;8.334;2022-11-20T14:33:16;3.17;;;0.80;;
19059;SDS011;9663;48.996;8.334;2022-11-20T14:35:45;3.25;;;0.88;;
19059;SDS011;9663;48.996;8.334;2022-11-20T14:38:28;1.90;;;0.73;;
19059;SDS011;9663;48.996;8.334;2022-11-20T14:41:07;2.50;;;0.70;;
19059;SDS011;9663;48.996;8.334;2022-11-20T14:43:53;2.33;;;0.73;;
19059;SDS011;9663;48.996;8.334;2022-11-20T14:46:22;2.55;;;0.85;;
19059;SDS011;9663;48.996;8.334;2022-11-20T14:48:50;1.65;;;0.60;;
19059;SDS011;9663;48.996;8.334;2022-11-20T14:51:27;1.50;;;0.50;;
19059;SDS011;9663;48.996;8.334;2022-11-20T14:54:09;3.35;;;0.75;;
19059;SDS011;9663;48.996;8.334;2022-11-20T14:59:32;1.42;;;0.73;;
19059;SDS011;9663;48.996;8.334;2022-11-20T15:02:01;2.08;;;0.63;;
19059;SDS011;9663;48.996;8.334;2022-11-20T15:04:48;2.25;;;0.70;;
19059;SDS011;9663;48.996;8.334;2022-11-20T15:07:31;2.30;;;0.70;;
19059;SDS011;9663;48.996;8.334;2022-11-20T15:10:11;1.70;;;0.60;;
19059;SDS011;9663;48.996;8.334;2022-11-20T15:12:53;1.88;;;0.70;;
19059;SDS011;9663;48.996;8.334;2022-11-20T15:15:27;1.80;;;0.80;;
19059;SDS011;9663;48.996;8.334;2022-11-20T15:18:10;1.75;;;0.60;;
19059;SDS011;9663;48.996;8.334;2022-11-20T15:20:44;1.35;;;0.60;;
19059;SDS011;9663;48.996;8.334;2022-11-20T15:23:11;0.95;;;0.50;;
19059;SDS011;9663;48.996;8.334;2022-11-20T15:25:39;3.20;;;0.65;;
19059;SDS011;9663;48.996;8.334;2022-11-20T15:28:49;1.77;;;0.60;;
19059;SDS011;9663;48.996;8.334;2022-11-20T15:30:58;1.75;;;0.65;;
19059;SDS011;9663;48.996;8.334;2022-11-20T15:33:25;1.42;;;0.55;;
19059;SDS011;9663;48.996;8.334;2022-11-20T15:35:51;1.38;;;0.55;;
19059;SDS011;9663;48.996;8.334;2022-11-20T15:38:16;2.05;;;0.65;;
19059;SDS011;9663;48.996;8.334;2022-11-20T15:40:42;1.45;;;0.65;;
19059;SDS011;9663;48.996;8.334;2022-11-20T15:43:08;1.73;;;0.65;;
19059;SDS011;9663;48.996;8.334;2022-11-20T15:48:05;0.88;;;0.50;;
19059;SDS011;9663;48.996;8.334;2022-11-20T15:50:43;2.63;;;0.60;;
19059;SDS011;9663;48.996;8.334;2022-11-20T15:53:18;1.58;;;0.60;;
19059;SDS011;9663;48.996;8.334;2022-11-20T15:55:44;0.93;;;0.50;;
19059;SDS011;9663;48.996;8.334;2022-11-20T15:58:10;2.47;;;0.88;;
19059;SDS011;9663;48.996;8.334;2022-11-20T16:00:35;2.30;;;0.60;;
19059;SDS011;9663;48.996;8.334;2022-11-20T16:03:01;1.33;;;0.60;;
19059;SDS011;9663;48.996;8.334;2022-11-20T16:05:30;2.33;;;0.77;;
19059;SDS011;9663;48.996;8.334;2022-11-20T16:07:56;1.50;;;0.60;;
19059;SDS011;9663;48.996;8.334;2022-11-20T16:10:22;2.38;;;0.80;;
19059;SDS011;9663;48.996;8.334;2022-11-20T16:12:48;1.77;;;0.70;;
19059;SDS011;9663;48.996;8.334;2022-11-20T16:15:33;2.85;;;0.98;;
19059;SDS011;9663;48.996;8.334;2022-11-20T16:18:12;1.58;;;0.60;;
19059;SDS011;9663;48.996;8.334;2022-11-20T16:20:43;2.80;;;0.70;;
19059;SDS011;9663;48.996;8.334;2022-11-20T16:23:11;2.33;;;0.80;;
19059;SDS011;9663;48.996;8.334;2022-11-20T16:25:37;1.83;;;0.70;;
19059;SDS011;9663;48.996;8.334;2022-11-20T16:28:03;1.73;;;0.60;;
19059;SDS011;9663;48.996;8.334;2022-11-20T16:30:30;3.00;;;0.80;;
19059;SDS011;9663;48.996;8.334;2022-11-20T16:33:00;2.47;;;0.60;;
19059;SDS011;9663;48.996;8.334;2022-11-20T16:35:27;1.83;;;0.60;;
19059;SDS011;9663;48.996;8.334;2022-11-20T16:37:54;2.30;;;0.70;;
19059;SDS011;9663;48.996;8.334;2022-11-20T16:40:23;2.53;;;0.85;;
19059;SDS011;9663;48.996;8.334;2022-11-20T16:42:50;1.65;;;0.70;;
19059;SDS011;9663;48.996;8.334;2022-11-20T16:45:16;2.45;;;0.80;;
19059;SDS011;9663;48.996;8.334;2022-11-20T16:47:42;2.08;;;0.90;;
19059;SDS011;9663;48.996;8.334;2022-11-20T16:50:08;1.90;;;0.70;;
19059;SDS011;9663;48.996;8.334;2022-11-20T16:52:34;2.08;;;0.90;;
19059;SDS011;9663;48.996;8.334;2022-11-20T16:55:00;2.05;;;0.70;;